sensor_id;sensor_type;location;lat;lon;timestamp;temperature;humidity
573;DHT22;271;51.114;13.780;2023-04-01T00:01:30;9.60;1.00
573;DHT22;271;51.114;13.780;2023-04-01T00:04:18;9.70;1.00
573;DHT22;271;51.114;13.780;2023-04-01T00:07:06;9.60;1.00
573;DHT22;271;51.114;13.780;2023-04-01T00:09:54;9.60;1.00
573;DHT22;271;51.114;13.780;2023-04-01T00:12:42;9.60;1.00
573;DHT22;271;51.114;13.780;2023-04-01T00:15:32;9.50;1.00
573;DHT22;271;51.114;13.780;2023-04-01T00:18:20;9.50;1.00
573;DHT22;271;51.114;13.780;2023-04-01T00:21:08;9.50;1.00
573;DHT22;271;51.114;13.780;2023-04-01T00:23:56;9.50;1.00
573;DHT22;271;51.114;13.780;2023-04-01T00:26:44;9.40;1.00
573;DHT22;271;51.114;13.780;2023-04-01T00:29:34;9.50;1.00
573;DHT22;271;51.114;13.780;2023-04-01T00:32:23;9.50;1.00
573;DHT22;271;51.114;13.780;2023-04-01T00:35:11;9.50;1.00
573;DHT22;271;51.114;13.780;2023-04-01T00:37:59;9.50;1.00
573;DHT22;271;51.114;13.780;2023-04-01T00:40:47;9.50;1.00
573;DHT22;271;51.114;13.780;2023-04-01T00:43:36;9.50;1.00
573;DHT22;271;51.114;13.780;2023-04-01T00:46:23;9.40;1.00
573;DHT22;271;51.114;13.780;2023-04-01T00:49:13;9.40;1.00
573;DHT22;271;51.114;13.780;2023-04-01T00:52:02;9.50;1.00
573;DHT22;271;51.114;13.780;2023-04-01T00:54:55;9.50;1.00
573;DHT22;271;51.114;13.780;2023-04-01T00:57:44;9.50;1.00
573;DHT22;271;51.114;13.780;2023-04-01T01:00:34;9.40;1.00
573;DHT22;271;51.114;13.780;2023-04-01T01:03:22;9.40;1.00
573;DHT22;271;51.114;13.780;2023-04-01T01:06:27;9.40;1.00
573;DHT22;271;51.114;13.780;2023-04-01T01:09:35;9.30;1.00
573;DHT22;271;51.114;13.780;2023-04-01T01:12:29;9.40;1.00
573;DHT22;271;51.114;13.780;2023-04-01T01:15:22;9.40;1.00
573;DHT22;271;51.114;13.780;2023-04-01T01:18:19;9.40;1.00
573;DHT22;271;51.114;13.780;2023-04-01T01:21:29;9.40;1.00
573;DHT22;271;51.114;13.780;2023-04-01T01:24:34;9.30;1.00
573;DHT22;271;51.114;13.780;2023-04-01T01:27:27;9.30;1.00
573;DHT22;271;51.114;13.780;2023-04-01T01:30:39;9.30;1.00
573;DHT22;271;51.114;13.780;2023-04-01T01:33:39;9.30;1.00
573;DHT22;271;51.114;13.780;2023-04-01T01:36:33;9.40;1.00
573;DHT22;271;51.114;13.780;2023-04-01T01:39:23;9.50;1.00
573;DHT22;271;51.114;13.780;2023-04-01T01:42:16;9.50;1.00
573;DHT22;271;51.114;13.780;2023-04-01T01:45:07;9.50;1.00
573;DHT22;271;51.114;13.780;2023-04-01T01:47:56;9.40;1.00
573;DHT22;271;51.114;13.780;2023-04-01T01:50:46;9.40;1.00
573;DHT22;271;51.114;13.780;2023-04-01T01:53:36;9.40;1.00
573;DHT22;271;51.114;13.780;2023-04-01T01:56:26;9.40;1.00
573;DHT22;271;51.114;13.780;2023-04-01T01:59:17;9.50;1.00
573;DHT22;271;51.114;13.780;2023-04-01T02:02:08;9.50;1.00
573;DHT22;271;51.114;13.780;2023-04-01T02:04:57;9.40;1.00
573;DHT22;271;51.114;13.780;2023-04-01T02:07:49;9.40;1.00
573;DHT22;271;51.114;13.780;2023-04-01T02:10:43;9.40;1.00
573;DHT22;271;51.114;13.780;2023-04-01T02:13:37;9.40;1.00
573;DHT22;271;51.114;13.780;2023-04-01T02:16:28;9.40;1.00
573;DHT22;271;51.114;13.780;2023-04-01T02:19:19;9.40;1.00
573;DHT22;271;51.114;13.780;2023-04-01T02:22:11;9.40;1.00
573;DHT22;271;51.114;13.780;2023-04-01T02:25:03;9.40;1.00
573;DHT22;271;51.114;13.780;2023-04-01T02:27:55;9.50;1.00
573;DHT22;271;51.114;13.780;2023-04-01T02:30:44;9.50;1.00
573;DHT22;271;51.114;13.780;2023-04-01T02:33:32;9.60;1.00
573;DHT22;271;51.114;13.780;2023-04-01T02:36:20;9.50;1.00
573;DHT22;271;51.114;13.780;2023-04-01T02:39:08;9.50;1.00
573;DHT22;271;51.114;13.780;2023-04-01T02:41:56;9.40;1.00
573;DHT22;271;51.114;13.780;2023-04-01T02:44:46;9.50;1.00
573;DHT22;271;51.114;13.780;2023-04-01T02:47:33;9.50;1.00
573;DHT22;271;51.114;13.780;2023-04-01T02:50:21;9.50;1.00
573;DHT22;271;51.114;13.780;2023-04-01T02:53:09;9.50;1.00
573;DHT22;271;51.114;13.780;2023-04-01T02:55:57;9.50;1.00
573;DHT22;271;51.114;13.780;2023-04-01T02:58:45;9.50;1.00
573;DHT22;271;51.114;13.780;2023-04-01T03:01:34;9.50;1.00
573;DHT22;271;51.114;13.780;2023-04-01T03:04:22;9.50;1.00
573;DHT22;271;51.114;13.780;2023-04-01T03:07:10;9.50;1.00
573;DHT22;271;51.114;13.780;2023-04-01T03:09:57;9.50;1.00
573;DHT22;271;51.114;13.780;2023-04-01T03:12:45;9.50;1.00
573;DHT22;271;51.114;13.780;2023-04-01T03:15:33;9.60;1.00
573;DHT22;271;51.114;13.780;2023-04-01T03:18:22;9.60;1.00
573;DHT22;271;51.114;13.780;2023-04-01T03:21:18;9.60;1.00
573;DHT22;271;51.114;13.780;2023-04-01T03:24:07;9.60;1.00
573;DHT22;271;51.114;13.780;2023-04-01T03:26:55;9.70;1.00
573;DHT22;271;51.114;13.780;2023-04-01T03:29:42;9.70;1.00
573;DHT22;271;51.114;13.780;2023-04-01T03:32:30;9.70;1.00
573;DHT22;271;51.114;13.780;2023-04-01T03:35:19;9.60;1.00
573;DHT22;271;51.114;13.780;2023-04-01T03:38:07;9.60;1.00
573;DHT22;271;51.114;13.780;2023-04-01T03:40:55;9.60;1.00
573;DHT22;271;51.114;13.780;2023-04-01T03:43:43;9.60;1.00
573;DHT22;271;51.114;13.780;2023-04-01T03:46:30;9.60;1.00
573;DHT22;271;51.114;13.780;2023-04-01T03:49:18;9.60;1.00
573;DHT22;271;51.114;13.780;2023-04-01T03:52:10;9.60;1.00
573;DHT22;271;51.114;13.780;2023-04-01T03:54:58;9.60;1.00
573;DHT22;271;51.114;13.780;2023-04-01T03:57:46;9.60;1.00
573;DHT22;271;51.114;13.780;2023-04-01T04:00:34;9.60;1.00
573;DHT22;271;51.114;13.780;2023-04-01T04:03:22;9.60;1.00
573;DHT22;271;51.114;13.780;2023-04-01T04:06:11;9.70;1.00
573;DHT22;271;51.114;13.780;2023-04-01T04:09:01;9.60;1.00
573;DHT22;271;51.114;13.780;2023-04-01T04:11:48;9.60;1.00
573;DHT22;271;51.114;13.780;2023-04-01T04:14:37;9.60;1.00
573;DHT22;271;51.114;13.780;2023-04-01T04:17:25;9.60;1.00
573;DHT22;271;51.114;13.780;2023-04-01T04:20:13;9.60;1.00
573;DHT22;271;51.114;13.780;2023-04-01T04:23:00;9.50;1.00
573;DHT22;271;51.114;13.780;2023-04-01T04:25:57;9.50;1.00
573;DHT22;271;51.114;13.780;2023-04-01T04:28:45;9.50;1.00
573;DHT22;271;51.114;13.780;2023-04-01T04:31:34;9.50;1.00
573;DHT22;271;51.114;13.780;2023-04-01T04:34:22;9.60;1.00
573;DHT22;271;51.114;13.780;2023-04-01T04:37:09;9.50;1.00
573;DHT22;271;51.114;13.780;2023-04-01T04:39:57;9.50;1.00
573;DHT22;271;51.114;13.780;2023-04-01T04:42:46;9.50;1.00
573;DHT22;271;51.114;13.780;2023-04-01T04:45:34;9.60;1.00
573;DHT22;271;51.114;13.780;2023-04-01T04:48:22;9.60;1.00
573;DHT22;271;51.114;13.780;2023-04-01T04:51:13;9.60;1.00
573;DHT22;271;51.114;13.780;2023-04-01T04:54:01;9.60;1.00
573;DHT22;271;51.114;13.780;2023-04-01T04:56:51;9.60;1.00
573;DHT22;271;51.114;13.780;2023-04-01T04:59:41;9.60;1.00
573;DHT22;271;51.114;13.780;2023-04-01T05:02:29;9.60;1.00
573;DHT22;271;51.114;13.780;2023-04-01T05:05:17;9.70;1.00
573;DHT22;271;51.114;13.780;2023-04-01T05:08:04;9.60;1.00
573;DHT22;271;51.114;13.780;2023-04-01T05:10:52;9.60;1.00
573;DHT22;271;51.114;13.780;2023-04-01T05:13:40;9.60;1.00
573;DHT22;271;51.114;13.780;2023-04-01T05:16:29;9.60;1.00
573;DHT22;271;51.114;13.780;2023-04-01T05:19:17;9.70;1.00
573;DHT22;271;51.114;13.780;2023-04-01T05:22:05;9.70;1.00
573;DHT22;271;51.114;13.780;2023-04-01T05:24:53;9.70;1.00
573;DHT22;271;51.114;13.780;2023-04-01T05:27:41;9.70;1.00
573;DHT22;271;51.114;13.780;2023-04-01T05:30:29;9.70;1.00
573;DHT22;271;51.114;13.780;2023-04-01T05:33:18;9.70;1.00
573;DHT22;271;51.114;13.780;2023-04-01T05:36:07;9.80;1.00
573;DHT22;271;51.114;13.780;2023-04-01T05:38:55;9.80;1.00
573;DHT22;271;51.114;13.780;2023-04-01T05:41:43;9.90;1.00
573;DHT22;271;51.114;13.780;2023-04-01T05:44:31;9.90;1.00
573;DHT22;271;51.114;13.780;2023-04-01T05:47:19;9.90;1.00
573;DHT22;271;51.114;13.780;2023-04-01T05:50:09;10.00;1.00
573;DHT22;271;51.114;13.780;2023-04-01T05:53:00;9.90;1.00
573;DHT22;271;51.114;13.780;2023-04-01T05:55:48;9.90;1.00
573;DHT22;271;51.114;13.780;2023-04-01T05:58:36;9.90;1.00
573;DHT22;271;51.114;13.780;2023-04-01T06:01:24;9.90;1.00
573;DHT22;271;51.114;13.780;2023-04-01T06:04:14;9.90;1.00
573;DHT22;271;51.114;13.780;2023-04-01T06:07:11;10.00;1.00
573;DHT22;271;51.114;13.780;2023-04-01T06:09:59;10.00;1.00
573;DHT22;271;51.114;13.780;2023-04-01T06:12:56;10.00;1.00
573;DHT22;271;51.114;13.780;2023-04-01T06:15:55;10.00;1.00
573;DHT22;271;51.114;13.780;2023-04-01T06:19:16;10.00;1.00
573;DHT22;271;51.114;13.780;2023-04-01T06:22:33;10.00;1.00
573;DHT22;271;51.114;13.780;2023-04-01T06:25:37;10.00;1.00
573;DHT22;271;51.114;13.780;2023-04-01T06:28:58;10.00;1.00
573;DHT22;271;51.114;13.780;2023-04-01T06:35:30;10.20;1.00
573;DHT22;271;51.114;13.780;2023-04-01T06:38:36;10.20;1.00
573;DHT22;271;51.114;13.780;2023-04-01T06:44:49;10.30;1.00
573;DHT22;271;51.114;13.780;2023-04-01T06:47:53;10.40;1.00
573;DHT22;271;51.114;13.780;2023-04-01T06:50:51;10.40;1.00
573;DHT22;271;51.114;13.780;2023-04-01T06:53:49;10.40;1.00
573;DHT22;271;51.114;13.780;2023-04-01T06:56:42;10.60;1.00
573;DHT22;271;51.114;13.780;2023-04-01T06:59:34;10.60;1.00
573;DHT22;271;51.114;13.780;2023-04-01T07:02:28;10.60;1.00
573;DHT22;271;51.114;13.780;2023-04-01T07:05:19;10.70;1.00
573;DHT22;271;51.114;13.780;2023-04-01T07:08:11;10.80;1.00
573;DHT22;271;51.114;13.780;2023-04-01T07:11:04;10.80;1.00
573;DHT22;271;51.114;13.780;2023-04-01T07:13:55;10.90;1.00
573;DHT22;271;51.114;13.780;2023-04-01T07:16:53;10.90;1.00
573;DHT22;271;51.114;13.780;2023-04-01T07:19:54;10.90;1.00
573;DHT22;271;51.114;13.780;2023-04-01T07:22:46;10.90;1.00
573;DHT22;271;51.114;13.780;2023-04-01T07:25:38;10.80;1.00
573;DHT22;271;51.114;13.780;2023-04-01T07:28:30;10.90;1.00
573;DHT22;271;51.114;13.780;2023-04-01T07:31:30;11.00;1.00
573;DHT22;271;51.114;13.780;2023-04-01T07:34:27;11.10;1.00
573;DHT22;271;51.114;13.780;2023-04-01T07:37:20;11.00;1.00
573;DHT22;271;51.114;13.780;2023-04-01T07:40:21;11.10;1.00
573;DHT22;271;51.114;13.780;2023-04-01T07:46:49;11.00;1.00
573;DHT22;271;51.114;13.780;2023-04-01T07:49:46;11.00;1.00
573;DHT22;271;51.114;13.780;2023-04-01T07:52:40;11.10;1.00
573;DHT22;271;51.114;13.780;2023-04-01T07:55:38;11.20;1.00
573;DHT22;271;51.114;13.780;2023-04-01T07:58:47;11.20;1.00
573;DHT22;271;51.114;13.780;2023-04-01T08:01:44;11.20;1.00
573;DHT22;271;51.114;13.780;2023-04-01T08:04:52;11.30;1.00
573;DHT22;271;51.114;13.780;2023-04-01T08:07:45;11.30;1.00
573;DHT22;271;51.114;13.780;2023-04-01T08:10:41;11.50;1.00
573;DHT22;271;51.114;13.780;2023-04-01T08:13:37;11.60;1.00
573;DHT22;271;51.114;13.780;2023-04-01T08:16:37;11.80;1.00
573;DHT22;271;51.114;13.780;2023-04-01T08:19:35;12.00;1.00
573;DHT22;271;51.114;13.780;2023-04-01T08:22:30;11.90;1.00
573;DHT22;271;51.114;13.780;2023-04-01T08:25:24;11.80;1.00
573;DHT22;271;51.114;13.780;2023-04-01T08:28:16;11.90;1.00
573;DHT22;271;51.114;13.780;2023-04-01T08:31:17;12.00;1.00
573;DHT22;271;51.114;13.780;2023-04-01T08:34:12;12.00;1.00
573;DHT22;271;51.114;13.780;2023-04-01T08:37:07;12.10;1.00
573;DHT22;271;51.114;13.780;2023-04-01T08:39:58;12.00;1.00
573;DHT22;271;51.114;13.780;2023-04-01T08:49:26;11.80;1.00
573;DHT22;271;51.114;13.780;2023-04-01T08:52:37;11.80;1.00
573;DHT22;271;51.114;13.780;2023-04-01T08:55:40;11.80;1.00
573;DHT22;271;51.114;13.780;2023-04-01T08:59:16;11.80;1.00
573;DHT22;271;51.114;13.780;2023-04-01T09:02:39;11.70;1.00
573;DHT22;271;51.114;13.780;2023-04-01T09:05:38;11.80;1.00
573;DHT22;271;51.114;13.780;2023-04-01T09:08:41;11.70;1.00
573;DHT22;271;51.114;13.780;2023-04-01T09:11:38;11.80;1.00
573;DHT22;271;51.114;13.780;2023-04-01T09:14:58;11.90;1.00
573;DHT22;271;51.114;13.780;2023-04-01T09:21:34;12.10;1.00
573;DHT22;271;51.114;13.780;2023-04-01T09:24:41;12.10;1.00
573;DHT22;271;51.114;13.780;2023-04-01T09:27:34;12.10;1.00
573;DHT22;271;51.114;13.780;2023-04-01T09:30:34;12.00;1.00
573;DHT22;271;51.114;13.780;2023-04-01T09:37:13;11.70;1.00
573;DHT22;271;51.114;13.780;2023-04-01T09:40:17;11.70;1.00
573;DHT22;271;51.114;13.780;2023-04-01T09:43:30;11.80;1.00
573;DHT22;271;51.114;13.780;2023-04-01T09:46:26;11.80;1.00
573;DHT22;271;51.114;13.780;2023-04-01T09:49:39;11.80;1.00
573;DHT22;271;51.114;13.780;2023-04-01T09:52:34;11.90;1.00
573;DHT22;271;51.114;13.780;2023-04-01T09:55:57;11.90;1.00
573;DHT22;271;51.114;13.780;2023-04-01T09:59:14;11.90;1.00
573;DHT22;271;51.114;13.780;2023-04-01T10:02:41;12.00;1.00
573;DHT22;271;51.114;13.780;2023-04-01T10:09:26;12.00;1.00
573;DHT22;271;51.114;13.780;2023-04-01T10:12:32;11.90;1.00
573;DHT22;271;51.114;13.780;2023-04-01T10:19:14;11.90;1.00
573;DHT22;271;51.114;13.780;2023-04-01T10:22:36;12.00;1.00
573;DHT22;271;51.114;13.780;2023-04-01T10:25:57;12.10;1.00
573;DHT22;271;51.114;13.780;2023-04-01T10:29:21;12.30;1.00
573;DHT22;271;51.114;13.780;2023-04-01T10:32:45;12.30;1.00
573;DHT22;271;51.114;13.780;2023-04-01T10:46:15;12.50;1.00
573;DHT22;271;51.114;13.780;2023-04-01T10:49:35;12.20;1.00
573;DHT22;271;51.114;13.780;2023-04-01T10:53:06;12.30;1.00
573;DHT22;271;51.114;13.780;2023-04-01T10:56:36;12.20;1.00
573;DHT22;271;51.114;13.780;2023-04-01T10:59:57;12.20;1.00
573;DHT22;271;51.114;13.780;2023-04-01T11:03:28;12.10;1.00
573;DHT22;271;51.114;13.780;2023-04-01T11:06:44;12.00;1.00
573;DHT22;271;51.114;13.780;2023-04-01T11:16:52;11.50;1.00
573;DHT22;271;51.114;13.780;2023-04-01T11:26:42;11.70;1.00
573;DHT22;271;51.114;13.780;2023-04-01T11:29:46;11.80;1.00
573;DHT22;271;51.114;13.780;2023-04-01T11:32:51;11.80;1.00
573;DHT22;271;51.114;13.780;2023-04-01T11:35:54;12.10;1.00
573;DHT22;271;51.114;13.780;2023-04-01T11:39:01;12.20;1.00
573;DHT22;271;51.114;13.780;2023-04-01T11:41:56;12.20;1.00
573;DHT22;271;51.114;13.780;2023-04-01T11:44:58;12.40;1.00
573;DHT22;271;51.114;13.780;2023-04-01T11:47:58;12.40;1.00
573;DHT22;271;51.114;13.780;2023-04-01T11:51:07;12.40;1.00
573;DHT22;271;51.114;13.780;2023-04-01T11:54:03;12.60;1.00
573;DHT22;271;51.114;13.780;2023-04-01T11:57:04;12.80;1.00
573;DHT22;271;51.114;13.780;2023-04-01T12:00:05;13.20;1.00
573;DHT22;271;51.114;13.780;2023-04-01T12:03:14;13.50;1.00
573;DHT22;271;51.114;13.780;2023-04-01T12:06:12;13.80;1.00
573;DHT22;271;51.114;13.780;2023-04-01T12:12:20;14.20;1.00
573;DHT22;271;51.114;13.780;2023-04-01T12:15:19;14.50;1.00
573;DHT22;271;51.114;13.780;2023-04-01T12:18:17;14.60;1.00
573;DHT22;271;51.114;13.780;2023-04-01T12:21:17;14.30;1.00
573;DHT22;271;51.114;13.780;2023-04-01T12:24:40;14.00;1.00
573;DHT22;271;51.114;13.780;2023-04-01T12:27:38;13.80;1.00
573;DHT22;271;51.114;13.780;2023-04-01T12:30:46;13.70;1.00
573;DHT22;271;51.114;13.780;2023-04-01T12:33:59;13.70;1.00
573;DHT22;271;51.114;13.780;2023-04-01T12:36:59;13.70;1.00
573;DHT22;271;51.114;13.780;2023-04-01T12:40:01;13.70;1.00
573;DHT22;271;51.114;13.780;2023-04-01T12:43:03;13.70;1.00
573;DHT22;271;51.114;13.780;2023-04-01T12:45:59;13.80;1.00
573;DHT22;271;51.114;13.780;2023-04-01T12:49:07;14.00;1.00
573;DHT22;271;51.114;13.780;2023-04-01T12:52:07;14.10;1.00
573;DHT22;271;51.114;13.780;2023-04-01T12:55:25;13.90;1.00
573;DHT22;271;51.114;13.780;2023-04-01T13:02:16;14.00;1.00
573;DHT22;271;51.114;13.780;2023-04-01T13:05:38;14.20;1.00
573;DHT22;271;51.114;13.780;2023-04-01T13:08:42;14.30;1.00
573;DHT22;271;51.114;13.780;2023-04-01T13:11:39;14.30;1.00
573;DHT22;271;51.114;13.780;2023-04-01T13:14:50;14.40;1.00
573;DHT22;271;51.114;13.780;2023-04-01T13:17:50;14.40;1.00
573;DHT22;271;51.114;13.780;2023-04-01T13:20:45;14.60;1.00
573;DHT22;271;51.114;13.780;2023-04-01T13:23:47;14.90;1.00
573;DHT22;271;51.114;13.780;2023-04-01T13:26:44;14.60;1.00
573;DHT22;271;51.114;13.780;2023-04-01T13:30:02;14.40;1.00
573;DHT22;271;51.114;13.780;2023-04-01T13:32:58;14.20;1.00
573;DHT22;271;51.114;13.780;2023-04-01T13:35:51;13.80;1.00
573;DHT22;271;51.114;13.780;2023-04-01T13:39:04;13.70;1.00
573;DHT22;271;51.114;13.780;2023-04-01T13:42:08;13.50;1.00
573;DHT22;271;51.114;13.780;2023-04-01T13:45:09;13.30;1.00
573;DHT22;271;51.114;13.780;2023-04-01T13:48:27;12.90;1.00
573;DHT22;271;51.114;13.780;2023-04-01T13:51:51;12.70;1.00
573;DHT22;271;51.114;13.780;2023-04-01T13:58:42;12.90;1.00
573;DHT22;271;51.114;13.780;2023-04-01T14:01:37;13.00;1.00
573;DHT22;271;51.114;13.780;2023-04-01T14:04:47;13.10;1.00
573;DHT22;271;51.114;13.780;2023-04-01T14:07:49;13.40;1.00
573;DHT22;271;51.114;13.780;2023-04-01T14:10:45;13.60;1.00
573;DHT22;271;51.114;13.780;2023-04-01T14:13:41;13.70;1.00
573;DHT22;271;51.114;13.780;2023-04-01T14:17:00;13.40;1.00
573;DHT22;271;51.114;13.780;2023-04-01T14:20:22;13.40;1.00
573;DHT22;271;51.114;13.780;2023-04-01T14:23:35;13.40;1.00
573;DHT22;271;51.114;13.780;2023-04-01T14:26:41;13.30;1.00
573;DHT22;271;51.114;13.780;2023-04-01T14:29:37;13.20;1.00
573;DHT22;271;51.114;13.780;2023-04-01T14:32:39;13.20;1.00
573;DHT22;271;51.114;13.780;2023-04-01T14:35:50;13.20;1.00
573;DHT22;271;51.114;13.780;2023-04-01T14:38:48;13.40;1.00
573;DHT22;271;51.114;13.780;2023-04-01T14:41:50;13.40;1.00
573;DHT22;271;51.114;13.780;2023-04-01T14:44:56;13.50;1.00
573;DHT22;271;51.114;13.780;2023-04-01T14:47:48;13.50;1.00
573;DHT22;271;51.114;13.780;2023-04-01T14:50:43;13.30;1.00
573;DHT22;271;51.114;13.780;2023-04-01T14:53:55;13.30;1.00
573;DHT22;271;51.114;13.780;2023-04-01T14:56:49;13.10;1.00
573;DHT22;271;51.114;13.780;2023-04-01T14:59:40;13.10;1.00
573;DHT22;271;51.114;13.780;2023-04-01T15:02:46;13.10;1.00
573;DHT22;271;51.114;13.780;2023-04-01T15:05:45;13.10;1.00
573;DHT22;271;51.114;13.780;2023-04-01T15:08:37;13.00;1.00
573;DHT22;271;51.114;13.780;2023-04-01T15:11:51;12.90;1.00
573;DHT22;271;51.114;13.780;2023-04-01T15:14:59;12.90;1.00
573;DHT22;271;51.114;13.780;2023-04-01T15:18:07;12.80;1.00
573;DHT22;271;51.114;13.780;2023-04-01T15:24:13;13.10;1.00
573;DHT22;271;51.114;13.780;2023-04-01T15:27:23;13.30;1.00
573;DHT22;271;51.114;13.780;2023-04-01T15:30:33;13.50;1.00
573;DHT22;271;51.114;13.780;2023-04-01T15:36:44;13.30;1.00
573;DHT22;271;51.114;13.780;2023-04-01T15:39:54;13.20;1.00
573;DHT22;271;51.114;13.780;2023-04-01T15:42:53;13.10;1.00
573;DHT22;271;51.114;13.780;2023-04-01T15:45:49;13.00;1.00
573;DHT22;271;51.114;13.780;2023-04-01T15:49:01;13.00;1.00
573;DHT22;271;51.114;13.780;2023-04-01T15:52:09;12.90;1.00
573;DHT22;271;51.114;13.780;2023-04-01T15:55:13;13.00;1.00
573;DHT22;271;51.114;13.780;2023-04-01T15:58:17;12.90;1.00
573;DHT22;271;51.114;13.780;2023-04-01T16:01:22;12.70;1.00
573;DHT22;271;51.114;13.780;2023-04-01T16:04:37;12.60;1.00
573;DHT22;271;51.114;13.780;2023-04-01T16:07:48;12.60;1.00
573;DHT22;271;51.114;13.780;2023-04-01T16:10:48;12.60;1.00
573;DHT22;271;51.114;13.780;2023-04-01T16:13:48;12.50;1.00
573;DHT22;271;51.114;13.780;2023-04-01T16:16:51;12.40;1.00
573;DHT22;271;51.114;13.780;2023-04-01T16:19:52;12.50;1.00
573;DHT22;271;51.114;13.780;2023-04-01T16:22:51;12.60;1.00
573;DHT22;271;51.114;13.780;2023-04-01T16:25:49;12.50;1.00
573;DHT22;271;51.114;13.780;2023-04-01T16:28:53;12.50;1.00
573;DHT22;271;51.114;13.780;2023-04-01T16:31:45;12.40;1.00
573;DHT22;271;51.114;13.780;2023-04-01T16:34:38;12.30;1.00
573;DHT22;271;51.114;13.780;2023-04-01T16:37:33;12.20;1.00
573;DHT22;271;51.114;13.780;2023-04-01T16:40:36;12.20;1.00
573;DHT22;271;51.114;13.780;2023-04-01T16:43:30;12.20;1.00
573;DHT22;271;51.114;13.780;2023-04-01T16:46:30;12.20;1.00
573;DHT22;271;51.114;13.780;2023-04-01T16:49:31;12.20;1.00
573;DHT22;271;51.114;13.780;2023-04-01T16:52:34;12.10;1.00
573;DHT22;271;51.114;13.780;2023-04-01T16:55:33;12.10;1.00
573;DHT22;271;51.114;13.780;2023-04-01T16:58:26;12.00;1.00
573;DHT22;271;51.114;13.780;2023-04-01T17:01:18;12.00;1.00
573;DHT22;271;51.114;13.780;2023-04-01T17:04:18;12.00;1.00
573;DHT22;271;51.114;13.780;2023-04-01T17:07:19;11.90;1.00
573;DHT22;271;51.114;13.780;2023-04-01T17:10:31;11.90;1.00
573;DHT22;271;51.114;13.780;2023-04-01T17:13:37;11.90;1.00
573;DHT22;271;51.114;13.780;2023-04-01T17:16:50;11.90;1.00
573;DHT22;271;51.114;13.780;2023-04-01T17:19:48;11.80;1.00
573;DHT22;271;51.114;13.780;2023-04-01T17:22:40;11.80;1.00
573;DHT22;271;51.114;13.780;2023-04-01T17:25:40;11.80;1.00
573;DHT22;271;51.114;13.780;2023-04-01T17:28:44;11.70;1.00
573;DHT22;271;51.114;13.780;2023-04-01T17:31:42;11.80;1.00
573;DHT22;271;51.114;13.780;2023-04-01T17:34:50;11.70;1.00
573;DHT22;271;51.114;13.780;2023-04-01T17:37:51;11.70;1.00
573;DHT22;271;51.114;13.780;2023-04-01T17:40:53;11.70;1.00
573;DHT22;271;51.114;13.780;2023-04-01T17:43:48;11.60;1.00
573;DHT22;271;51.114;13.780;2023-04-01T17:46:54;11.60;1.00
573;DHT22;271;51.114;13.780;2023-04-01T17:49:51;11.50;1.00
573;DHT22;271;51.114;13.780;2023-04-01T17:52:45;11.60;1.00
573;DHT22;271;51.114;13.780;2023-04-01T17:56:01;11.50;1.00
573;DHT22;271;51.114;13.780;2023-04-01T17:58:59;11.60;1.00
573;DHT22;271;51.114;13.780;2023-04-01T18:01:58;11.60;1.00
573;DHT22;271;51.114;13.780;2023-04-01T18:08:14;11.50;1.00
573;DHT22;271;51.114;13.780;2023-04-01T18:11:12;11.40;1.00
573;DHT22;271;51.114;13.780;2023-04-01T18:14:42;11.40;1.00
573;DHT22;271;51.114;13.780;2023-04-01T18:17:52;11.40;1.00
573;DHT22;271;51.114;13.780;2023-04-01T18:20:50;11.30;1.00
573;DHT22;271;51.114;13.780;2023-04-01T18:23:45;11.30;1.00
573;DHT22;271;51.114;13.780;2023-04-01T18:26:39;11.20;1.00
573;DHT22;271;51.114;13.780;2023-04-01T18:29:37;11.10;1.00
573;DHT22;271;51.114;13.780;2023-04-01T18:32:31;11.10;1.00
573;DHT22;271;51.114;13.780;2023-04-01T18:35:29;11.00;1.00
573;DHT22;271;51.114;13.780;2023-04-01T18:38:25;11.00;1.00
573;DHT22;271;51.114;13.780;2023-04-01T18:41:19;11.00;1.00
573;DHT22;271;51.114;13.780;2023-04-01T18:44:25;11.00;1.00
573;DHT22;271;51.114;13.780;2023-04-01T18:47:22;11.00;1.00
573;DHT22;271;51.114;13.780;2023-04-01T18:50:18;11.00;1.00
573;DHT22;271;51.114;13.780;2023-04-01T18:53:17;10.90;1.00
573;DHT22;271;51.114;13.780;2023-04-01T18:56:08;10.90;1.00
573;DHT22;271;51.114;13.780;2023-04-01T18:59:03;10.90;1.00
573;DHT22;271;51.114;13.780;2023-04-01T19:02:00;10.80;1.00
573;DHT22;271;51.114;13.780;2023-04-01T19:04:53;10.80;1.00
573;DHT22;271;51.114;13.780;2023-04-01T19:07:47;10.70;1.00
573;DHT22;271;51.114;13.780;2023-04-01T19:10:40;10.60;1.00
573;DHT22;271;51.114;13.780;2023-04-01T19:13:39;10.70;1.00
573;DHT22;271;51.114;13.780;2023-04-01T19:16:40;10.60;1.00
573;DHT22;271;51.114;13.780;2023-04-01T19:19:42;10.60;1.00
573;DHT22;271;51.114;13.780;2023-04-01T19:22:42;10.50;1.00
573;DHT22;271;51.114;13.780;2023-04-01T19:25:37;10.50;1.00
573;DHT22;271;51.114;13.780;2023-04-01T19:28:38;10.40;1.00
573;DHT22;271;51.114;13.780;2023-04-01T19:31:39;10.50;1.00
573;DHT22;271;51.114;13.780;2023-04-01T19:34:45;10.50;1.00
573;DHT22;271;51.114;13.780;2023-04-01T19:37:39;10.50;1.00
573;DHT22;271;51.114;13.780;2023-04-01T19:40:45;10.50;1.00
573;DHT22;271;51.114;13.780;2023-04-01T19:43:51;10.40;1.00
573;DHT22;271;51.114;13.780;2023-04-01T19:46:43;10.40;1.00
573;DHT22;271;51.114;13.780;2023-04-01T19:49:42;10.30;1.00
573;DHT22;271;51.114;13.780;2023-04-01T19:52:36;10.30;1.00
573;DHT22;271;51.114;13.780;2023-04-01T19:55:35;10.30;1.00
573;DHT22;271;51.114;13.780;2023-04-01T19:58:30;10.30;1.00
573;DHT22;271;51.114;13.780;2023-04-01T20:01:24;10.30;1.00
573;DHT22;271;51.114;13.780;2023-04-01T20:04:17;10.30;1.00
573;DHT22;271;51.114;13.780;2023-04-01T20:07:09;10.30;1.00
573;DHT22;271;51.114;13.780;2023-04-01T20:10:06;10.30;1.00
573;DHT22;271;51.114;13.780;2023-04-01T20:13:00;10.30;1.00
573;DHT22;271;51.114;13.780;2023-04-01T20:16:00;10.20;1.00
573;DHT22;271;51.114;13.780;2023-04-01T20:18:52;10.20;1.00
573;DHT22;271;51.114;13.780;2023-04-01T20:21:45;10.30;1.00
573;DHT22;271;51.114;13.780;2023-04-01T20:24:36;10.30;1.00
573;DHT22;271;51.114;13.780;2023-04-01T20:27:29;10.30;1.00
573;DHT22;271;51.114;13.780;2023-04-01T20:30:38;10.20;1.00
573;DHT22;271;51.114;13.780;2023-04-01T20:37:08;10.10;7.50
573;DHT22;271;51.114;13.780;2023-04-01T20:40:22;10.10;8.80
573;DHT22;271;51.114;13.780;2023-04-01T20:46:50;10.10;9.70
573;DHT22;271;51.114;13.780;2023-04-01T20:49:40;10.20;6.60
573;DHT22;271;51.114;13.780;2023-04-01T20:52:37;10.20;9.60
573;DHT22;271;51.114;13.780;2023-04-01T20:58:54;10.20;7.90
573;DHT22;271;51.114;13.780;2023-04-01T21:01:54;10.10;10.10
573;DHT22;271;51.114;13.780;2023-04-01T21:05:04;10.00;12.80
573;DHT22;271;51.114;13.780;2023-04-01T21:08:01;10.00;12.00
573;DHT22;271;51.114;13.780;2023-04-01T21:10:59;10.10;13.10
573;DHT22;271;51.114;13.780;2023-04-01T21:13:56;10.00;9.80
573;DHT22;271;51.114;13.780;2023-04-01T21:16:51;9.90;11.50
573;DHT22;271;51.114;13.780;2023-04-01T21:19:56;9.90;10.80
573;DHT22;271;51.114;13.780;2023-04-01T21:22:59;9.80;11.10
573;DHT22;271;51.114;13.780;2023-04-01T21:26:00;9.90;12.90
573;DHT22;271;51.114;13.780;2023-04-01T21:29:08;9.70;11.30
573;DHT22;271;51.114;13.780;2023-04-01T21:35:26;9.70;15.40
573;DHT22;271;51.114;13.780;2023-04-01T21:38:34;9.50;16.60